首页
METAR-TAF:

METAR-TAF

机场 :

Dupage Airport

West Chicago, 伊利诺伊州, 美国

纬度: 41-53-47N, 经度: 088-15-04W, 海拔: 231米

当前天气观测

该预报发布于51分钟前的20:52 UTC
风速12节,风向西转西北
温度 -1°C
湿度 74%
气压 1007 hPa
能見度: 12.9公里
阴天层高于1700英尺

METAR: KDPA 142052Z 30012KT 8SM OVC017 M01/M05 A2975 RMK AO2 SLP082 T10111050 53012

时间: 15:43 (21:43 UTC)

预报

该预报发布于1小时和11分钟前的20:32 UTC
预报有效从14日的 21点(UTC)到 15日的 18点(UTC)
风速12节,风向西转西北,有时为20节阵风
能見度: 10公里
阴天层高于1500英尺
从 15日的 0000点(UTC)
风速12节,风向西转西北,有时为18节阵风
能見度: 10公里
散云层高于1800英尺
阴天层高于2500英尺
从 15日的 0600点(UTC)
风速11节,风向西转西北
能見度: 10公里
散云层高于2000英尺
散云层高于20000英尺
从 15日的 1500点(UTC)
风速6节,风向西转西北
能見度: 10公里
多云层高于15000英尺

TAF: KDPA 142032Z 1421/1518 30012G20KT P6SM OVC015 FM150000 30012G18KT P6SM SCT018 OVC025 FM150600 30011KT P6SM SCT020 SCT200 FM151500 29006KT P6SM BKN150

超过4000个机场的气象观测和天气预报(METAR&TAF报告)。

可查询的气象台以黄色和红色小点在地图上表示。

将鼠标移到小点上方,可查看气象台名称。

然后点击查看天气观测和预报。

如需切换地图:点击带黑十字的绿色按钮放大地图;点击带横线的绿色按钮缩小地图;或者点击绿色箭头查看邻近地区的地图。


METAR-TAF: